Terminal Aerodrome Forecast
Issued by NWS Springfield, MO

Home | Current Version | Previous Version | Text Only | Print | Product List | Glossary On
Versions: 1 2 3 4 5 6 7 8 9 10 11 12 13 14 15 16 17 18 19 20 21 22 23 24 25 26 27
000
FTUS43 KSGF 170839 AAB
TAFSGF
TAF AMD
KSGF 170839Z 1709/1806 16015G25KT P6SM BKN015 OVC080 WS020/21050KT
     FM171600 18025G35KT P6SM OVC015 WS020/21045KT
     FM171800 19025G32KT P6SM OVC025 WS020/21050KT=

USA.gov is the U.S. government's official web portal to all federal, state and local government web resources and services.